Nearby METAR Reports

CWGD - Goderich (autob), Ontario, Canada
Distance from station: SW 47km
Updated: 06/23/2021 7:00am

 Wind from SE
Wind: SE 2 km/h
Temperature: 11°C
Dew Point: 10°C
Humidity: 94%
2021/06/23 11:00 CWGD 231100Z AUTO 14001KT 11/10 RMK AO1 SLP199 T01140096 53017
CWLS - Mount Forest(Mar, Ontario, Canada
Distance from station: ESE 53km
Updated: 06/23/2021 7:00am

 Wind from SSW
Wind: SSW 7 km/h
Temperature: 10°C
Wind Chill: 9°C
Dew Point: 8°C
Humidity: 88%
2021/06/23 11:00 CWLS 231100Z AUTO 21004KT 10/08 RMK AO1 SLP194 T00960079 53016
 
CYVV - Wiarton Air, Ontario, Canada
Distance from station: NNE 75km
Updated: 06/23/2021 7:00am
Few Clouds
Few Clouds
 Wind from SE
Wind: SE 7 km/h
Temperature: 9°C
Wind Chill: 8°C
Dew Point: 8°C
Humidity: 94%
Barometer: 1018.3 hPa
Clouds: Few Clouds
Visibility: 24 km
Cloud details: Few Clouds 7620 m
2021/06/23 11:00 CYVV 231100Z 13004KT 15SM FEW250 09/08 A3007 RMK CI1 CI TR SLP187
CZEL - Elora Rcs, Ontario, Canada
Distance from station: ESE 93km
Updated: 06/23/2021 7:00am

 Wind from E
Wind: E 2 km/h
Temperature: 8°C
Dew Point: 7°C
Humidity: 93%
2021/06/23 11:00 CZEL 231100Z AUTO 09001KT 08/07 RMK AO1 SLP199 T00840073 53016
 
CWCO - Collingwood (aut, Ontario, Canada
Distance from station: ENE 104km
Updated: 06/23/2021 7:00am

 Wind from SW
Wind: SW 7 km/h
Temperature: 12°C
Dew Point: 9°C
Humidity: 82%
2021/06/23 11:00 CWCO 231100Z AUTO 23004KT 12/09 RMK AO1 3016 SLP182 T01180093 50005
CYKF - Waterloo Well, Ontario, Canada
Distance from station: SE 107km
Updated: 06/23/2021 7:00am
Clear
Clear
 Wind from ENE
Wind: ENE 4 km/h
Temperature: 8°C
Dew Point: 8°C
Humidity: 100%
Barometer: 1019.3 hPa
Clouds: Clear
Visibility: 14 km
2021/06/23 11:00 CYKF 231100Z AUTO 06002KT 9SM CLR 08/08 A3010 RMK SLP199
 
KP58 - Port Hope, Michigan, USA
Distance from station: W 114km
Updated: 06/23/2021 6:55am

 Wind from SW
Wind: SW 13 km/h
Temperature: 14°C
Barometer: 1017.9 hPa
2021/06/23 10:55 KP58 231055Z AUTO 23007KT 14/ A3006 RMK AO1 SLP175 T0144 $
CYBN - Borden, Ontario, Canada
Distance from station: E 118km
Updated: 06/23/2021 7:00am
Few Clouds
Few Clouds
 Wind from S
Wind: S 6 km/h
Temperature: 10°C
Dew Point: 6°C
Humidity: 76%
Barometer: 1019 hPa
Clouds: Few Clouds
Visibility: 14 km
Cloud details: Few Clouds 1036 m
Few Clouds 1798 m
2021/06/23 11:00 CYBN 231100Z AUTO 19003KT 160V220 9SM FEW034 FEW059 10/06 A3009 RMK SLP193
 
CYXU - London Airport, Ontario, Canada
Distance from station: S 123km
Updated: 06/23/2021 7:00am
Mostly cloudy
Mostly cloudy
 Wind from E
Wind: E 4 km/h
Temperature: 10°C
Dew Point: 9°C
Humidity: 94%
Barometer: 1019.3 hPa
Clouds: Mostly cloudy
Visibility: 24 km
Cloud details: Mostly cloudy 8534 m
2021/06/23 11:00 CYXU 231100Z 08002KT 15SM BKN280 10/09 A3010 RMK CI6 SLP198
CXET - Egbert Cs, Ontario, Canada
Distance from station: E 128km
Updated: 06/23/2021 7:00am

 Wind from S
Wind: S 6 km/h
Temperature: 9°C
Dew Point: 6°C
Humidity: 82%
2021/06/23 11:00 CXET 231100Z AUTO 19003KT 09/06 RMK AO1 SLP193 T00890055 53016
 
CWMZ - Western Isl (map, Ontario, Canada
Distance from station: NE 129km
Updated: 06/23/2021 6:00am
NOT Current

 
2021/06/23 10:00 CWMZ 231000Z AUTO RMK AO1
KBAX - Bad Axe, Michigan, USA
Distance from station: WSW 133km
Updated: 06/23/2021 7:15am
Clear
Clear
 Wind from S
Wind: S 11 km/h
Temperature: 9°C
Wind Chill: 7°C
Dew Point: 9°C
Humidity: 100%
Barometer: 1018.6 hPa
Clouds: Clear
Visibility: 16 km
2021/06/23 11:15 KBAX 231115Z AUTO 19006KT 10SM CLR 09/09 A3008 RMK AO2 T00910091
 
CWWX - Cove Island (map, Ontario, Canada
Distance from station: NNW 137km
Updated: 05/11/2021 10:00am
NOT Current

 Wind from NNW
Wind: NNW 30 km/h
Temperature: 5°C
Wind Chill: 0°C
Dew Point: 2°C
Humidity: 81%
2021/05/11 14:00 CWWX 111400Z AUTO 33016KT 05/02 RMK AO1 PK WND 34021/1308 SLP196 T00470019 51010
CYZR - Sarnia Airport, Ontario, Canada
Distance from station: SSW 144km
Updated: 06/23/2021 7:00am
Clear
Clear
 Wind from S
Wind: S 4 km/h
Temperature: 10°C
Dew Point: 9°C
Humidity: 94%
Barometer: 1019.3 hPa
Clouds: Clear
Visibility: 14 km
2021/06/23 11:00 CYZR 231100Z AUTO 18002KT 9SM CLR 10/09 A3010 RMK SLP197
 
CXHM - Hamilton Rbg Cs, Ontario, Canada
Distance from station: SE 150km
Updated: 06/23/2021 7:00am

 Wind from W
Wind: W 6 km/h
Temperature: 11°C
Dew Point: 8°C
Humidity: 82%
2021/06/23 11:00 CXHM 231100Z AUTO 28003KT 11/08 RMK AO1 SLP196 T01110082 53018
CYYZ - Toronto/Pearson, Ontario, Canada
Distance from station: ESE 150km
Updated: 06/23/2021 7:00am
Few Clouds
Few Clouds
 Wind from W
Wind: W 6 km/h
Temperature: 12°C
Dew Point: 8°C
Humidity: 77%
Barometer: 1019.3 hPa
Clouds: Few Clouds
Visibility: 24 km
Cloud details: Few Clouds 3048 m
Few Clouds 7925 m
2021/06/23 11:00 CYYZ 231100Z 28003KT 15SM FEW100 FEW260 12/08 A3010 RMK AC1CI1 CI TR SLP197
 
CXBI - Barrie-Oro, Ontario, Canada
Distance from station: ENE 151km
Updated: 06/23/2021 7:00am

 Wind from W
Wind: W 6 km/h
Temperature: 9°C
Dew Point: 8°C
Humidity: 94%
2021/06/23 11:00 CXBI 231100Z AUTO 26003KT 09/08 RMK AO1 3016 SLP198 T00890076 50002
CXDI - Delhi Cs (aut), Ontario, Canada
Distance from station: SSE 154km
Updated: 06/23/2021 7:00am

 Wind from calm
Wind: Calm
Temperature: 9°C
Dew Point: 8°C
Humidity: 94%
2021/06/23 11:00 CXDI 231100Z AUTO 00000KT 09/08 RMK AO1 7PAST HR 3017 P0077 T00890081 50599
 
CWWB - Burlington Piers, Ontario, Canada
Distance from station: SE 157km
Updated: 06/23/2021 7:00am

 Wind from SW
Wind: SW 7 km/h
Temperature: 13°C
Dew Point: 8°C
Humidity: 72%
2021/06/23 11:00 CWWB 231100Z AUTO 23004KT 13/08 RMK AO1 SLP198 T01300076 53018
CYHM - Hamilton Airport, Ontario, Canada
Distance from station: SE 157km
Updated: 06/23/2021 7:00am
Mostly cloudy
Mostly cloudy
 Wind from W
Wind: W 4 km/h
Temperature: 10°C
Dew Point: 9°C
Humidity: 94%
Barometer: 1019.6 hPa
Clouds: Mostly cloudy
Visibility: 24 km
Cloud details: Few Clouds 914 m
Few Clouds 2438 m
Mostly cloudy 7620 m
2021/06/23 11:00 CYHM 231100Z 27002KT 15SM FEW030TCU FEW080 BKN250 10/09 A3011 RMK TCU1AC1CI3 TCU S SLP200